sensor_id;sensor_type;location;lat;lon;timestamp;pressure;altitude;pressure_sealevel;temperature;humidity
70437;BME280;57877;39.750;-104.894;2023-04-29T00:00:48;84015.28;;;14.18;14.73
70437;BME280;57877;39.750;-104.894;2023-04-29T00:03:13;84016.88;;;14.50;14.76
70437;BME280;57877;39.750;-104.894;2023-04-29T00:05:38;84014.29;;;13.96;14.73
70437;BME280;57877;39.750;-104.894;2023-04-29T00:08:03;84016.08;;;14.45;14.35
70437;BME280;57877;39.750;-104.894;2023-04-29T00:10:28;84011.94;;;14.84;14.39
70437;BME280;57877;39.750;-104.894;2023-04-29T00:12:53;84009.98;;;14.76;14.33
70437;BME280;57877;39.750;-104.894;2023-04-29T00:15:19;84011.22;;;14.64;14.47
70437;BME280;57877;39.750;-104.894;2023-04-29T00:17:43;84012.15;;;15.93;13.72
70437;BME280;57877;39.750;-104.894;2023-04-29T00:20:09;84010.27;;;14.68;14.23
70437;BME280;57877;39.750;-104.894;2023-04-29T00:22:35;84012.44;;;14.49;14.80
70437;BME280;57877;39.750;-104.894;2023-04-29T00:24:58;84014.31;;;15.67;13.91
70437;BME280;57877;39.750;-104.894;2023-04-29T00:27:24;84016.38;;;13.56;14.90
70437;BME280;57877;39.750;-104.894;2023-04-29T00:29:49;84009.14;;;15.25;14.12
70437;BME280;57877;39.750;-104.894;2023-04-29T00:32:13;84010.38;;;14.84;14.44
70437;BME280;57877;39.750;-104.894;2023-04-29T00:34:38;84012.66;;;14.52;14.48
70437;BME280;57877;39.750;-104.894;2023-04-29T00:37:03;84012.17;;;15.39;13.66
70437;BME280;57877;39.750;-104.894;2023-04-29T00:39:29;84014.79;;;15.33;14.12
70437;BME280;57877;39.750;-104.894;2023-04-29T00:41:54;84007.14;;;14.87;14.53
70437;BME280;57877;39.750;-104.894;2023-04-29T00:44:20;84012.86;;;13.76;15.05
70437;BME280;57877;39.750;-104.894;2023-04-29T00:46:45;84013.92;;;14.84;14.61
70437;BME280;57877;39.750;-104.894;2023-04-29T00:49:10;84018.11;;;14.03;14.91
70437;BME280;57877;39.750;-104.894;2023-04-29T00:51:36;84017.04;;;13.73;15.36
70437;BME280;57877;39.750;-104.894;2023-04-29T00:54:01;84019.01;;;13.78;15.24
70437;BME280;57877;39.750;-104.894;2023-04-29T00:56:26;84016.00;;;13.53;15.44
70437;BME280;57877;39.750;-104.894;2023-04-29T00:58:52;84013.38;;;14.00;14.71
70437;BME280;57877;39.750;-104.894;2023-04-29T01:01:18;84012.72;;;13.60;15.27
70437;BME280;57877;39.750;-104.894;2023-04-29T01:03:45;84013.09;;;13.05;15.53
70437;BME280;57877;39.750;-104.894;2023-04-29T01:06:15;84013.74;;;13.22;15.54
70437;BME280;57877;39.750;-104.894;2023-04-29T01:08:39;84012.30;;;13.85;15.57
70437;BME280;57877;39.750;-104.894;2023-04-29T01:11:05;84007.66;;;13.56;15.80
70437;BME280;57877;39.750;-104.894;2023-04-29T01:13:29;84007.54;;;12.74;16.43
70437;BME280;57877;39.750;-104.894;2023-04-29T01:15:55;84011.11;;;12.99;15.95
70437;BME280;57877;39.750;-104.894;2023-04-29T01:18:19;84014.05;;;14.46;15.49
70437;BME280;57877;39.750;-104.894;2023-04-29T01:20:38;84019.12;;;14.21;15.52
70437;BME280;57877;39.750;-104.894;2023-04-29T01:23:04;84020.99;;;14.73;15.69
70437;BME280;57877;39.750;-104.894;2023-04-29T01:25:31;84020.12;;;14.19;14.95
70437;BME280;57877;39.750;-104.894;2023-04-29T01:28:04;84020.14;;;14.45;15.13
70437;BME280;57877;39.750;-104.894;2023-04-29T01:30:30;84024.98;;;13.96;15.25
70437;BME280;57877;39.750;-104.894;2023-04-29T01:32:54;84027.04;;;14.48;15.33
70437;BME280;57877;39.750;-104.894;2023-04-29T01:35:25;84028.64;;;14.82;14.96
70437;BME280;57877;39.750;-104.894;2023-04-29T01:37:47;84031.19;;;14.47;15.13
70437;BME280;57877;39.750;-104.894;2023-04-29T01:40:11;84035.46;;;14.56;14.95
70437;BME280;57877;39.750;-104.894;2023-04-29T01:42:38;84037.22;;;13.69;15.29
70437;BME280;57877;39.750;-104.894;2023-04-29T01:45:00;84043.34;;;14.08;15.58
70437;BME280;57877;39.750;-104.894;2023-04-29T01:47:22;84048.72;;;13.01;17.94
70437;BME280;57877;39.750;-104.894;2023-04-29T01:49:49;84053.98;;;12.95;18.45
70437;BME280;57877;39.750;-104.894;2023-04-29T01:52:14;84055.36;;;13.04;18.87
70437;BME280;57877;39.750;-104.894;2023-04-29T01:54:40;84053.81;;;12.87;19.41
70437;BME280;57877;39.750;-104.894;2023-04-29T01:57:06;84046.26;;;12.66;19.66
70437;BME280;57877;39.750;-104.894;2023-04-29T01:59:31;84049.48;;;12.01;20.65
70437;BME280;57877;39.750;-104.894;2023-04-29T02:01:56;84053.61;;;12.10;20.69
70437;BME280;57877;39.750;-104.894;2023-04-29T02:04:21;84056.96;;;11.67;21.63
70437;BME280;57877;39.750;-104.894;2023-04-29T02:06:46;84061.41;;;11.80;21.31
70437;BME280;57877;39.750;-104.894;2023-04-29T02:09:12;84068.01;;;12.57;20.84
70437;BME280;57877;39.750;-104.894;2023-04-29T02:11:37;84071.66;;;12.39;20.91
70437;BME280;57877;39.750;-104.894;2023-04-29T02:14:03;84070.20;;;12.64;20.93
70437;BME280;57877;39.750;-104.894;2023-04-29T02:16:29;84072.15;;;12.49;20.88
70437;BME280;57877;39.750;-104.894;2023-04-29T02:18:55;84078.28;;;12.44;21.30
70437;BME280;57877;39.750;-104.894;2023-04-29T02:21:21;84076.06;;;12.47;20.85
70437;BME280;57877;39.750;-104.894;2023-04-29T02:23:47;84077.34;;;12.80;20.73
70437;BME280;57877;39.750;-104.894;2023-04-29T02:26:13;84081.63;;;12.42;20.83
70437;BME280;57877;39.750;-104.894;2023-04-29T02:28:39;84081.34;;;12.37;21.17
70437;BME280;57877;39.750;-104.894;2023-04-29T02:31:06;84089.01;;;12.87;20.73
70437;BME280;57877;39.750;-104.894;2023-04-29T02:33:32;84093.45;;;12.69;20.76
70437;BME280;57877;39.750;-104.894;2023-04-29T02:35:57;84100.91;;;13.06;20.29
70437;BME280;57877;39.750;-104.894;2023-04-29T02:38:23;84103.83;;;13.10;20.20
70437;BME280;57877;39.750;-104.894;2023-04-29T02:40:49;84107.15;;;12.92;20.32
70437;BME280;57877;39.750;-104.894;2023-04-29T02:43:15;84110.70;;;12.35;21.34
70437;BME280;57877;39.750;-104.894;2023-04-29T02:45:41;84108.62;;;12.38;21.39
70437;BME280;57877;39.750;-104.894;2023-04-29T02:48:07;84105.13;;;12.20;21.45
70437;BME280;57877;39.750;-104.894;2023-04-29T02:50:33;84110.97;;;12.41;21.47
70437;BME280;57877;39.750;-104.894;2023-04-29T02:52:59;84116.29;;;12.46;21.55
70437;BME280;57877;39.750;-104.894;2023-04-29T02:55:25;84119.65;;;12.56;21.46
70437;BME280;57877;39.750;-104.894;2023-04-29T02:57:51;84126.93;;;12.36;21.23
70437;BME280;57877;39.750;-104.894;2023-04-29T03:00:17;84133.35;;;12.31;21.53
70437;BME280;57877;39.750;-104.894;2023-04-29T03:02:43;84138.24;;;12.28;21.33
70437;BME280;57877;39.750;-104.894;2023-04-29T03:05:09;84138.21;;;12.26;21.23
70437;BME280;57877;39.750;-104.894;2023-04-29T03:07:35;84138.26;;;12.56;20.92
70437;BME280;57877;39.750;-104.894;2023-04-29T03:10:01;84134.96;;;12.25;21.02
70437;BME280;57877;39.750;-104.894;2023-04-29T03:12:27;84135.47;;;12.27;21.22
70437;BME280;57877;39.750;-104.894;2023-04-29T03:14:53;84141.83;;;12.49;21.40
70437;BME280;57877;39.750;-104.894;2023-04-29T03:17:19;84141.65;;;11.93;21.85
70437;BME280;57877;39.750;-104.894;2023-04-29T03:19:45;84140.93;;;12.64;21.60
70437;BME280;57877;39.750;-104.894;2023-04-29T03:22:11;84140.50;;;12.17;21.60
70437;BME280;57877;39.750;-104.894;2023-04-29T03:24:36;84142.17;;;12.39;21.54
70437;BME280;57877;39.750;-104.894;2023-04-29T03:27:02;84142.95;;;12.22;21.74
70437;BME280;57877;39.750;-104.894;2023-04-29T03:29:28;84141.60;;;12.04;22.15
70437;BME280;57877;39.750;-104.894;2023-04-29T03:31:55;84145.56;;;12.35;21.73
70437;BME280;57877;39.750;-104.894;2023-04-29T03:34:20;84147.86;;;12.01;21.71
70437;BME280;57877;39.750;-104.894;2023-04-29T03:36:46;84147.31;;;12.20;21.56
70437;BME280;57877;39.750;-104.894;2023-04-29T03:39:12;84149.07;;;11.94;21.78
70437;BME280;57877;39.750;-104.894;2023-04-29T03:41:38;84150.12;;;12.21;22.16
70437;BME280;57877;39.750;-104.894;2023-04-29T03:44:05;84148.08;;;11.94;22.08
70437;BME280;57877;39.750;-104.894;2023-04-29T03:46:30;84149.42;;;11.85;22.27
70437;BME280;57877;39.750;-104.894;2023-04-29T03:48:56;84148.19;;;12.26;22.21
70437;BME280;57877;39.750;-104.894;2023-04-29T03:51:22;84150.84;;;12.05;22.04
70437;BME280;57877;39.750;-104.894;2023-04-29T03:53:48;84150.56;;;11.98;22.20
70437;BME280;57877;39.750;-104.894;2023-04-29T03:56:14;84150.19;;;11.63;22.26
70437;BME280;57877;39.750;-104.894;2023-04-29T03:58:40;84149.81;;;11.93;22.21
70437;BME280;57877;39.750;-104.894;2023-04-29T04:01:06;84150.73;;;12.01;22.27
70437;BME280;57877;39.750;-104.894;2023-04-29T04:03:32;84151.72;;;12.04;22.08
70437;BME280;57877;39.750;-104.894;2023-04-29T04:05:57;84150.34;;;11.73;22.54
70437;BME280;57877;39.750;-104.894;2023-04-29T04:08:24;84148.77;;;11.38;22.87
70437;BME280;57877;39.750;-104.894;2023-04-29T04:10:49;84148.61;;;11.43;22.92
70437;BME280;57877;39.750;-104.894;2023-04-29T04:13:15;84149.20;;;11.29;22.90
70437;BME280;57877;39.750;-104.894;2023-04-29T04:15:41;84152.54;;;11.25;23.02
70437;BME280;57877;39.750;-104.894;2023-04-29T04:18:07;84155.07;;;11.54;22.84
70437;BME280;57877;39.750;-104.894;2023-04-29T04:20:35;84157.97;;;11.41;22.98
70437;BME280;57877;39.750;-104.894;2023-04-29T04:22:59;84156.93;;;11.39;22.94
70437;BME280;57877;39.750;-104.894;2023-04-29T04:25:25;84157.70;;;11.13;23.37
70437;BME280;57877;39.750;-104.894;2023-04-29T04:27:51;84157.82;;;11.42;23.63
70437;BME280;57877;39.750;-104.894;2023-04-29T04:30:17;84155.95;;;11.12;23.72
70437;BME280;57877;39.750;-104.894;2023-04-29T04:32:43;84157.37;;;11.56;23.58
70437;BME280;57877;39.750;-104.894;2023-04-29T04:35:09;84160.32;;;10.98;23.78
70437;BME280;57877;39.750;-104.894;2023-04-29T04:37:35;84158.60;;;11.16;23.97
70437;BME280;57877;39.750;-104.894;2023-04-29T04:40:01;84160.96;;;11.00;23.80
70437;BME280;57877;39.750;-104.894;2023-04-29T04:42:26;84156.67;;;11.14;23.52
70437;BME280;57877;39.750;-104.894;2023-04-29T04:44:53;84158.34;;;11.27;23.49
70437;BME280;57877;39.750;-104.894;2023-04-29T04:47:18;84158.43;;;10.94;23.85
70437;BME280;57877;39.750;-104.894;2023-04-29T04:49:44;84157.64;;;10.79;24.22
70437;BME280;57877;39.750;-104.894;2023-04-29T04:52:10;84158.28;;;10.78;24.47
70437;BME280;57877;39.750;-104.894;2023-04-29T04:54:36;84158.80;;;10.64;24.64
70437;BME280;57877;39.750;-104.894;2023-04-29T04:57:02;84154.97;;;10.79;24.81
70437;BME280;57877;39.750;-104.894;2023-04-29T04:59:28;84151.37;;;10.44;24.64
70437;BME280;57877;39.750;-104.894;2023-04-29T05:01:54;84146.99;;;10.47;24.89
70437;BME280;57877;39.750;-104.894;2023-04-29T05:04:20;84143.43;;;10.48;24.42
70437;BME280;57877;39.750;-104.894;2023-04-29T05:06:46;84139.95;;;10.54;24.59
70437;BME280;57877;39.750;-104.894;2023-04-29T05:09:12;84138.41;;;10.54;24.71
70437;BME280;57877;39.750;-104.894;2023-04-29T05:11:38;84140.55;;;10.32;24.67
70437;BME280;57877;39.750;-104.894;2023-04-29T05:14:04;84140.11;;;10.14;24.79
70437;BME280;57877;39.750;-104.894;2023-04-29T05:16:29;84140.45;;;10.32;24.93
70437;BME280;57877;39.750;-104.894;2023-04-29T05:18:55;84143.38;;;10.11;25.15
70437;BME280;57877;39.750;-104.894;2023-04-29T05:21:21;84142.50;;;10.01;25.37
70437;BME280;57877;39.750;-104.894;2023-04-29T05:23:47;84141.91;;;10.05;25.36
70437;BME280;57877;39.750;-104.894;2023-04-29T05:26:13;84139.21;;;10.17;25.52
70437;BME280;57877;39.750;-104.894;2023-04-29T05:28:39;84140.76;;;9.76;25.59
70437;BME280;57877;39.750;-104.894;2023-04-29T05:31:05;84138.88;;;9.68;25.81
70437;BME280;57877;39.750;-104.894;2023-04-29T05:33:31;84134.86;;;10.01;25.87
70437;BME280;57877;39.750;-104.894;2023-04-29T05:35:57;84134.40;;;9.76;25.91
70437;BME280;57877;39.750;-104.894;2023-04-29T05:38:23;84131.07;;;9.75;25.87
70437;BME280;57877;39.750;-104.894;2023-04-29T05:40:50;84132.86;;;9.90;26.05
70437;BME280;57877;39.750;-104.894;2023-04-29T05:43:15;84137.42;;;9.68;25.85
70437;BME280;57877;39.750;-104.894;2023-04-29T05:45:41;84141.20;;;9.57;25.97
70437;BME280;57877;39.750;-104.894;2023-04-29T05:48:07;84143.20;;;9.99;25.71
70437;BME280;57877;39.750;-104.894;2023-04-29T05:50:34;84144.11;;;9.67;25.88
70437;BME280;57877;39.750;-104.894;2023-04-29T05:52:59;84142.50;;;9.51;25.95
70437;BME280;57877;39.750;-104.894;2023-04-29T05:55:25;84140.23;;;9.52;25.91
70437;BME280;57877;39.750;-104.894;2023-04-29T05:57:51;84138.17;;;9.58;26.21
70437;BME280;57877;39.750;-104.894;2023-04-29T06:00:17;84138.07;;;9.36;26.54
70437;BME280;57877;39.750;-104.894;2023-04-29T06:02:43;84141.05;;;9.24;26.91
70437;BME280;57877;39.750;-104.894;2023-04-29T06:05:09;84140.37;;;9.18;27.12
70437;BME280;57877;39.750;-104.894;2023-04-29T06:07:34;84136.59;;;9.18;27.13
70437;BME280;57877;39.750;-104.894;2023-04-29T06:10:00;84134.74;;;9.01;27.30
70437;BME280;57877;39.750;-104.894;2023-04-29T06:12:26;84136.85;;;8.59;27.86
70437;BME280;57877;39.750;-104.894;2023-04-29T06:14:52;84138.61;;;8.98;27.84
70437;BME280;57877;39.750;-104.894;2023-04-29T06:17:18;84140.76;;;9.04;27.59
70437;BME280;57877;39.750;-104.894;2023-04-29T06:19:44;84139.54;;;9.28;27.31
70437;BME280;57877;39.750;-104.894;2023-04-29T06:22:10;84141.90;;;8.73;27.84
70437;BME280;57877;39.750;-104.894;2023-04-29T06:24:36;84139.09;;;8.78;27.87
70437;BME280;57877;39.750;-104.894;2023-04-29T06:27:02;84137.08;;;8.77;28.03
70437;BME280;57877;39.750;-104.894;2023-04-29T06:29:28;84133.70;;;8.65;28.29
70437;BME280;57877;39.750;-104.894;2023-04-29T06:31:54;84138.80;;;8.62;28.66
70437;BME280;57877;39.750;-104.894;2023-04-29T06:34:20;84138.42;;;8.81;28.59
70437;BME280;57877;39.750;-104.894;2023-04-29T06:36:46;84137.16;;;8.40;28.74
70437;BME280;57877;39.750;-104.894;2023-04-29T06:39:12;84138.39;;;8.13;28.96
70437;BME280;57877;39.750;-104.894;2023-04-29T06:41:38;84138.44;;;8.32;29.08
70437;BME280;57877;39.750;-104.894;2023-04-29T06:44:04;84146.01;;;8.68;28.83
70437;BME280;57877;39.750;-104.894;2023-04-29T06:46:30;84141.64;;;7.73;29.29
70437;BME280;57877;39.750;-104.894;2023-04-29T06:48:56;84138.26;;;8.05;29.23
70437;BME280;57877;39.750;-104.894;2023-04-29T06:51:22;84138.95;;;8.17;29.15
70437;BME280;57877;39.750;-104.894;2023-04-29T06:53:48;84137.91;;;8.13;29.19
70437;BME280;57877;39.750;-104.894;2023-04-29T06:56:14;84139.32;;;8.28;29.50
70437;BME280;57877;39.750;-104.894;2023-04-29T06:58:40;84140.09;;;8.00;29.53
70437;BME280;57877;39.750;-104.894;2023-04-29T07:01:06;84139.46;;;7.92;29.74
70437;BME280;57877;39.750;-104.894;2023-04-29T07:03:32;84138.01;;;7.97;29.64
70437;BME280;57877;39.750;-104.894;2023-04-29T07:05:58;84132.60;;;7.78;29.87
70437;BME280;57877;39.750;-104.894;2023-04-29T07:08:24;84127.39;;;7.79;29.98
70437;BME280;57877;39.750;-104.894;2023-04-29T07:10:55;84124.51;;;8.07;30.06
70437;BME280;57877;39.750;-104.894;2023-04-29T07:13:16;84121.40;;;7.78;30.50
70437;BME280;57877;39.750;-104.894;2023-04-29T07:15:42;84124.12;;;7.94;30.37
70437;BME280;57877;39.750;-104.894;2023-04-29T07:18:08;84126.32;;;7.92;30.51
70437;BME280;57877;39.750;-104.894;2023-04-29T07:20:36;84121.29;;;7.89;30.93
70437;BME280;57877;39.750;-104.894;2023-04-29T07:23:00;84115.41;;;7.60;31.08
70437;BME280;57877;39.750;-104.894;2023-04-29T07:25:26;84116.56;;;7.47;31.24
70437;BME280;57877;39.750;-104.894;2023-04-29T07:27:52;84112.54;;;7.61;31.11
70437;BME280;57877;39.750;-104.894;2023-04-29T07:30:18;84106.71;;;7.37;31.63
70437;BME280;57877;39.750;-104.894;2023-04-29T07:32:44;84109.05;;;7.42;31.71
70437;BME280;57877;39.750;-104.894;2023-04-29T07:35:10;84111.25;;;7.67;31.53
70437;BME280;57877;39.750;-104.894;2023-04-29T07:37:36;84106.56;;;7.25;31.70
70437;BME280;57877;39.750;-104.894;2023-04-29T07:40:02;84100.48;;;6.61;32.38
70437;BME280;57877;39.750;-104.894;2023-04-29T07:42:28;84107.45;;;7.05;32.22
70437;BME280;57877;39.750;-104.894;2023-04-29T07:44:54;84111.68;;;7.45;31.76
70437;BME280;57877;39.750;-104.894;2023-04-29T07:47:19;84110.56;;;7.44;31.25
70437;BME280;57877;39.750;-104.894;2023-04-29T07:49:44;84100.15;;;7.08;31.82
70437;BME280;57877;39.750;-104.894;2023-04-29T07:52:09;84102.43;;;6.75;32.35
70437;BME280;57877;39.750;-104.894;2023-04-29T07:54:35;84101.19;;;6.78;32.77
70437;BME280;57877;39.750;-104.894;2023-04-29T07:56:59;84110.34;;;7.00;32.54
70437;BME280;57877;39.750;-104.894;2023-04-29T07:59:24;84108.63;;;6.91;32.03
70437;BME280;57877;39.750;-104.894;2023-04-29T08:01:50;84098.49;;;7.37;32.02
70437;BME280;57877;39.750;-104.894;2023-04-29T08:04:16;84091.82;;;6.98;32.58
70437;BME280;57877;39.750;-104.894;2023-04-29T08:06:42;84089.32;;;7.05;32.70
70437;BME280;57877;39.750;-104.894;2023-04-29T08:09:07;84091.67;;;7.33;32.67
70437;BME280;57877;39.750;-104.894;2023-04-29T08:11:32;84090.96;;;6.54;32.70
70437;BME280;57877;39.750;-104.894;2023-04-29T08:13:58;84088.83;;;6.80;32.97
70437;BME280;57877;39.750;-104.894;2023-04-29T08:16:23;84083.35;;;6.24;33.60
70437;BME280;57877;39.750;-104.894;2023-04-29T08:18:48;84077.31;;;6.08;33.90
70437;BME280;57877;39.750;-104.894;2023-04-29T08:21:13;84078.31;;;6.47;33.63
70437;BME280;57877;39.750;-104.894;2023-04-29T08:23:38;84076.39;;;6.42;33.37
70437;BME280;57877;39.750;-104.894;2023-04-29T08:26:03;84075.44;;;6.33;33.14
70437;BME280;57877;39.750;-104.894;2023-04-29T08:28:28;84075.82;;;6.80;32.94
70437;BME280;57877;39.750;-104.894;2023-04-29T08:30:53;84073.30;;;6.83;32.40
70437;BME280;57877;39.750;-104.894;2023-04-29T08:33:19;84071.48;;;6.69;32.17
70437;BME280;57877;39.750;-104.894;2023-04-29T08:35:44;84073.30;;;6.93;32.22
70437;BME280;57877;39.750;-104.894;2023-04-29T08:38:09;84072.37;;;6.53;32.19
70437;BME280;57877;39.750;-104.894;2023-04-29T08:40:35;84072.42;;;6.85;32.00
70437;BME280;57877;39.750;-104.894;2023-04-29T08:42:59;84069.40;;;7.14;31.67
70437;BME280;57877;39.750;-104.894;2023-04-29T08:45:24;84068.45;;;6.78;31.74
70437;BME280;57877;39.750;-104.894;2023-04-29T08:47:50;84068.03;;;6.95;31.79
70437;BME280;57877;39.750;-104.894;2023-04-29T08:50:14;84068.64;;;6.73;31.70
70437;BME280;57877;39.750;-104.894;2023-04-29T08:52:40;84066.65;;;6.84;31.53
70437;BME280;57877;39.750;-104.894;2023-04-29T08:55:07;84065.65;;;6.95;31.30
70437;BME280;57877;39.750;-104.894;2023-04-29T08:57:35;84065.22;;;7.05;31.41
70437;BME280;57877;39.750;-104.894;2023-04-29T08:59:59;84067.66;;;6.72;31.62
70437;BME280;57877;39.750;-104.894;2023-04-29T09:02:24;84067.47;;;6.32;32.15
70437;BME280;57877;39.750;-104.894;2023-04-29T09:04:56;84062.77;;;6.10;32.57
70437;BME280;57877;39.750;-104.894;2023-04-29T09:07:14;84062.84;;;6.42;32.47
70437;BME280;57877;39.750;-104.894;2023-04-29T09:09:40;84062.05;;;6.32;32.43
70437;BME280;57877;39.750;-104.894;2023-04-29T09:12:04;84059.75;;;6.17;32.20
70437;BME280;57877;39.750;-104.894;2023-04-29T09:14:30;84061.55;;;6.50;32.35
70437;BME280;57877;39.750;-104.894;2023-04-29T09:16:54;84062.17;;;6.30;32.23
70437;BME280;57877;39.750;-104.894;2023-04-29T09:21:53;84059.74;;;6.28;32.25
70437;BME280;57877;39.750;-104.894;2023-04-29T09:24:09;84061.26;;;6.32;32.03
70437;BME280;57877;39.750;-104.894;2023-04-29T09:26:42;84061.19;;;6.53;32.08
70437;BME280;57877;39.750;-104.894;2023-04-29T09:29:06;84059.91;;;6.31;32.04
70437;BME280;57877;39.750;-104.894;2023-04-29T09:31:27;84059.58;;;6.46;31.81
70437;BME280;57877;39.750;-104.894;2023-04-29T09:33:52;84060.11;;;6.50;32.05
70437;BME280;57877;39.750;-104.894;2023-04-29T09:41:09;84062.39;;;6.34;32.27
70437;BME280;57877;39.750;-104.894;2023-04-29T09:43:30;84057.85;;;6.72;32.02
70437;BME280;57877;39.750;-104.894;2023-04-29T09:45:55;84055.65;;;6.14;32.65
70437;BME280;57877;39.750;-104.894;2023-04-29T09:48:20;84054.25;;;6.27;32.55
70437;BME280;57877;39.750;-104.894;2023-04-29T09:53:11;84052.41;;;6.19;32.82
70437;BME280;57877;39.750;-104.894;2023-04-29T09:55:36;84053.47;;;6.21;32.69
70437;BME280;57877;39.750;-104.894;2023-04-29T09:58:01;84053.84;;;6.02;33.04
70437;BME280;57877;39.750;-104.894;2023-04-29T10:00:29;84050.31;;;5.96;33.12
70437;BME280;57877;39.750;-104.894;2023-04-29T10:02:53;84052.40;;;5.96;33.07
70437;BME280;57877;39.750;-104.894;2023-04-29T10:05:16;84054.02;;;5.69;33.30
70437;BME280;57877;39.750;-104.894;2023-04-29T10:07:41;84053.80;;;5.83;33.02
70437;BME280;57877;39.750;-104.894;2023-04-29T10:10:08;84054.29;;;5.62;33.09
70437;BME280;57877;39.750;-104.894;2023-04-29T10:12:34;84058.54;;;5.53;33.08
70437;BME280;57877;39.750;-104.894;2023-04-29T10:15:02;84058.94;;;5.70;32.98
70437;BME280;57877;39.750;-104.894;2023-04-29T10:17:25;84056.56;;;5.60;32.89
70437;BME280;57877;39.750;-104.894;2023-04-29T10:19:50;84055.29;;;5.59;32.87
70437;BME280;57877;39.750;-104.894;2023-04-29T10:22:15;84057.30;;;5.37;32.95
70437;BME280;57877;39.750;-104.894;2023-04-29T10:24:37;84053.03;;;5.65;32.57
70437;BME280;57877;39.750;-104.894;2023-04-29T10:27:02;84048.93;;;5.60;32.71
70437;BME280;57877;39.750;-104.894;2023-04-29T10:29:28;84042.03;;;5.65;32.58
70437;BME280;57877;39.750;-104.894;2023-04-29T10:31:52;84043.34;;;5.64;32.65
70437;BME280;57877;39.750;-104.894;2023-04-29T10:34:17;84037.01;;;5.59;32.64
70437;BME280;57877;39.750;-104.894;2023-04-29T10:36:41;84038.77;;;5.61;32.49
70437;BME280;57877;39.750;-104.894;2023-04-29T10:39:11;84036.78;;;5.86;32.23
70437;BME280;57877;39.750;-104.894;2023-04-29T10:41:41;84034.64;;;5.97;32.06
70437;BME280;57877;39.750;-104.894;2023-04-29T10:43:58;84033.12;;;5.79;32.24
70437;BME280;57877;39.750;-104.894;2023-04-29T10:46:23;84037.78;;;5.84;32.21
70437;BME280;57877;39.750;-104.894;2023-04-29T10:48:49;84039.18;;;5.71;32.45
70437;BME280;57877;39.750;-104.894;2023-04-29T10:51:12;84039.51;;;5.59;32.41
70437;BME280;57877;39.750;-104.894;2023-04-29T10:56:08;84036.81;;;5.63;32.32
70437;BME280;57877;39.750;-104.894;2023-04-29T10:58:34;84034.75;;;5.65;32.17
70437;BME280;57877;39.750;-104.894;2023-04-29T11:00:52;84034.87;;;5.77;32.02
70437;BME280;57877;39.750;-104.894;2023-04-29T11:05:42;84037.60;;;5.98;31.65
70437;BME280;57877;39.750;-104.894;2023-04-29T11:08:11;84043.20;;;6.23;31.45
70437;BME280;57877;39.750;-104.894;2023-04-29T11:10:36;84044.68;;;6.16;31.22
70437;BME280;57877;39.750;-104.894;2023-04-29T11:15:23;84046.41;;;6.53;30.94
70437;BME280;57877;39.750;-104.894;2023-04-29T11:17:48;84044.88;;;6.36;31.30
70437;BME280;57877;39.750;-104.894;2023-04-29T11:20:13;84043.46;;;6.37;31.03
70437;BME280;57877;39.750;-104.894;2023-04-29T11:22:38;84040.02;;;6.11;31.25
70437;BME280;57877;39.750;-104.894;2023-04-29T11:25:05;84036.53;;;6.43;31.28
70437;BME280;57877;39.750;-104.894;2023-04-29T11:27:31;84034.00;;;5.85;31.91
70437;BME280;57877;39.750;-104.894;2023-04-29T11:29:54;84030.62;;;5.84;31.69
70437;BME280;57877;39.750;-104.894;2023-04-29T11:32:20;84023.58;;;5.63;32.02
70437;BME280;57877;39.750;-104.894;2023-04-29T11:34:43;84024.74;;;5.85;32.05
70437;BME280;57877;39.750;-104.894;2023-04-29T11:37:08;84025.33;;;5.85;31.99
70437;BME280;57877;39.750;-104.894;2023-04-29T11:39:34;84027.24;;;5.60;32.31
70437;BME280;57877;39.750;-104.894;2023-04-29T11:42:04;84030.05;;;5.85;31.99
70437;BME280;57877;39.750;-104.894;2023-04-29T11:44:23;84026.30;;;5.99;32.13
70437;BME280;57877;39.750;-104.894;2023-04-29T11:46:48;84030.19;;;5.95;31.90
70437;BME280;57877;39.750;-104.894;2023-04-29T11:49:14;84036.66;;;6.02;31.86
70437;BME280;57877;39.750;-104.894;2023-04-29T11:51:39;84037.95;;;5.98;31.59
70437;BME280;57877;39.750;-104.894;2023-04-29T11:54:04;84036.31;;;5.94;31.78
70437;BME280;57877;39.750;-104.894;2023-04-29T11:56:29;84035.45;;;5.98;31.79
70437;BME280;57877;39.750;-104.894;2023-04-29T11:58:54;84039.66;;;5.78;31.87
70437;BME280;57877;39.750;-104.894;2023-04-29T12:01:19;84039.23;;;5.86;32.07
70437;BME280;57877;39.750;-104.894;2023-04-29T12:03:44;84040.94;;;5.58;32.28
70437;BME280;57877;39.750;-104.894;2023-04-29T12:06:09;84041.23;;;5.76;32.13
70437;BME280;57877;39.750;-104.894;2023-04-29T12:08:34;84039.09;;;5.80;32.14
70437;BME280;57877;39.750;-104.894;2023-04-29T12:11:00;84039.84;;;5.93;31.89
70437;BME280;57877;39.750;-104.894;2023-04-29T12:13:27;84042.27;;;5.97;31.88
70437;BME280;57877;39.750;-104.894;2023-04-29T12:15:50;84044.57;;;5.99;31.82
70437;BME280;57877;39.750;-104.894;2023-04-29T12:18:15;84041.60;;;6.12;31.47
70437;BME280;57877;39.750;-104.894;2023-04-29T12:20:40;84047.22;;;6.30;31.37
70437;BME280;57877;39.750;-104.894;2023-04-29T12:23:11;84049.15;;;6.40;31.15
70437;BME280;57877;39.750;-104.894;2023-04-29T12:25:32;84048.66;;;6.36;30.64
70437;BME280;57877;39.750;-104.894;2023-04-29T12:28:00;84051.36;;;6.42;30.36
70437;BME280;57877;39.750;-104.894;2023-04-29T12:30:20;84056.35;;;6.14;31.04
70437;BME280;57877;39.750;-104.894;2023-04-29T12:32:45;84061.12;;;6.93;30.34
70437;BME280;57877;39.750;-104.894;2023-04-29T12:35:16;84064.21;;;6.77;30.13
70437;BME280;57877;39.750;-104.894;2023-04-29T12:37:35;84070.10;;;6.63;30.03
70437;BME280;57877;39.750;-104.894;2023-04-29T12:40:00;84069.79;;;7.14;29.89
70437;BME280;57877;39.750;-104.894;2023-04-29T12:42:31;84073.77;;;6.86;29.91